createdAt,value
2023-04-02T00:01:51.649Z,5.80
2023-04-02T00:04:23.189Z,5.78
2023-04-02T00:06:55.460Z,5.76
2023-04-02T00:09:27.547Z,5.75
2023-04-02T00:11:56.949Z,5.76
2023-04-02T00:14:30.052Z,5.79
2023-04-02T00:16:59.605Z,5.81
2023-04-02T00:19:35.187Z,5.82
2023-04-02T00:22:03.157Z,5.82
2023-04-02T00:24:29.632Z,5.79
2023-04-02T00:26:56.187Z,5.81
2023-04-02T00:29:22.772Z,5.82
2023-04-02T00:31:54.387Z,5.83
2023-04-02T00:34:22.408Z,5.79
2023-04-02T00:36:51.008Z,5.78
2023-04-02T00:39:22.362Z,5.76
2023-04-02T00:42:05.000Z,5.74
2023-04-02T00:44:34.228Z,5.78
2023-04-02T00:47:35.397Z,5.72
2023-04-02T00:50:22.008Z,5.70
2023-04-02T00:52:52.419Z,5.68
2023-04-02T00:55:32.916Z,5.68
2023-04-02T00:58:01.137Z,5.69
2023-04-02T01:00:32.059Z,5.69
2023-04-02T01:03:22.778Z,5.66
2023-04-02T01:05:55.764Z,5.66
2023-04-02T01:08:42.951Z,5.68
2023-04-02T01:11:30.777Z,5.67
2023-04-02T01:14:36.625Z,5.65
2023-04-02T01:17:11.246Z,5.66
2023-04-02T01:20:28.893Z,5.60
2023-04-02T01:23:08.055Z,5.57
2023-04-02T01:25:43.292Z,5.57
2023-04-02T01:28:29.441Z,5.57
2023-04-02T01:30:58.810Z,5.53
2023-04-02T01:33:30.236Z,5.53
2023-04-02T01:36:11.629Z,5.55
2023-04-02T01:38:47.875Z,5.58
2023-04-02T01:41:28.380Z,5.62
2023-04-02T01:44:41.862Z,5.64
2023-04-02T01:47:14.678Z,5.62
2023-04-02T01:49:43.566Z,5.62
2023-04-02T01:52:17.279Z,5.65
2023-04-02T01:54:45.570Z,5.69
2023-04-02T01:57:12.305Z,5.61
2023-04-02T01:59:39.976Z,5.59
2023-04-02T02:02:12.409Z,5.63
2023-04-02T02:04:40.957Z,5.64
2023-04-02T02:07:16.256Z,5.58
2023-04-02T02:09:48.833Z,5.60
2023-04-02T02:12:16.064Z,5.63
2023-04-02T02:14:50.761Z,5.67
2023-04-02T02:17:28.085Z,5.65
2023-04-02T02:19:59.431Z,5.65
2023-04-02T02:22:33.694Z,5.63
2023-04-02T02:25:03.071Z,5.62
2023-04-02T02:27:49.902Z,5.60
2023-04-02T02:30:27.360Z,5.57
2023-04-02T02:33:01.009Z,5.55
2023-04-02T02:35:34.402Z,5.53
2023-04-02T02:38:25.711Z,5.49
2023-04-02T02:40:56.855Z,5.49
2023-04-02T02:43:25.456Z,5.45
2023-04-02T02:45:53.959Z,5.46
2023-04-02T02:48:26.174Z,5.39
2023-04-02T02:51:17.994Z,5.29
2023-04-02T02:53:49.934Z,5.24
2023-04-02T02:56:17.049Z,5.29
2023-04-02T02:58:44.427Z,5.26
2023-04-02T03:01:18.731Z,5.24
2023-04-02T03:03:47.774Z,5.29
2023-04-02T03:06:17.168Z,5.34
2023-04-02T03:08:54.226Z,5.30
2023-04-02T03:11:50.604Z,5.24
2023-04-02T03:14:32.831Z,5.11
2023-04-02T03:17:08.786Z,5.03
2023-04-02T03:19:45.647Z,5.08
2023-04-02T03:22:37.577Z,5.12
2023-04-02T03:25:21.178Z,5.08
2023-04-02T03:27:51.582Z,5.13
2023-04-02T03:30:24.266Z,5.24
2023-04-02T03:32:56.340Z,5.14
2023-04-02T03:35:31.669Z,5.07
2023-04-02T03:38:13.017Z,5.01
2023-04-02T03:40:54.067Z,5.04
2023-04-02T03:43:25.805Z,5.11
2023-04-02T03:46:05.652Z,5.01
2023-04-02T03:48:46.631Z,4.82
2023-04-02T03:51:40.820Z,4.97
2023-04-02T03:54:15.509Z,4.97
2023-04-02T03:56:47.432Z,5.02
2023-04-02T03:59:34.657Z,5.02
2023-04-02T04:02:12.750Z,5.00
2023-04-02T04:04:41.988Z,5.01
2023-04-02T04:07:30.668Z,5.04
2023-04-02T04:09:59.482Z,4.98
2023-04-02T04:12:40.480Z,4.83
2023-04-02T04:15:15.281Z,4.79
2023-04-02T04:17:51.548Z,4.76
2023-04-02T04:20:25.965Z,4.77
2023-04-02T04:22:56.220Z,4.82
2023-04-02T04:25:30.444Z,4.85
2023-04-02T04:28:24.211Z,4.84
2023-04-02T04:31:17.850Z,4.91
2023-04-02T04:33:50.623Z,4.92
2023-04-02T04:36:27.819Z,5.00
2023-04-02T04:39:07.408Z,4.89
2023-04-02T04:41:38.673Z,4.94
2023-04-02T04:44:23.226Z,5.03
2023-04-02T04:46:55.318Z,5.04
2023-04-02T04:49:44.254Z,4.99
2023-04-02T04:52:22.050Z,5.06
2023-04-02T04:54:48.775Z,5.09
2023-04-02T04:57:41.683Z,5.00
2023-04-02T05:00:22.616Z,4.93
2023-04-02T05:03:09.164Z,4.99
2023-04-02T05:05:39.505Z,5.09
2023-04-02T05:08:20.958Z,5.05
2023-04-02T05:10:58.105Z,5.08
2023-04-02T05:13:57.203Z,5.11
2023-04-02T05:16:29.546Z,5.13
2023-04-02T05:18:56.016Z,5.09
2023-04-02T05:21:33.195Z,5.13
2023-04-02T05:24:29.581Z,5.07
2023-04-02T05:27:02.670Z,5.02
2023-04-02T05:29:38.425Z,5.06
2023-04-02T05:32:17.122Z,5.19
2023-04-02T05:34:51.556Z,5.12
2023-04-02T05:37:21.005Z,5.16
2023-04-02T05:39:52.554Z,5.24
2023-04-02T05:42:31.578Z,5.26
2023-04-02T05:45:20.274Z,5.27
2023-04-02T05:47:51.900Z,5.32
2023-04-02T05:50:47.232Z,5.46
2023-04-02T05:53:28.851Z,5.51
2023-04-02T05:56:16.486Z,5.55
2023-04-02T05:58:50.224Z,5.56
2023-04-02T06:01:36.150Z,5.53
2023-04-02T06:04:30.240Z,5.54
2023-04-02T06:07:21.710Z,5.60
2023-04-02T06:10:04.985Z,5.68
2023-04-02T06:12:43.569Z,5.66
2023-04-02T06:15:15.412Z,5.72
2023-04-02T06:17:58.369Z,5.83
2023-04-02T06:20:25.636Z,5.89
2023-04-02T06:23:31.269Z,5.94
2023-04-02T06:26:10.259Z,5.97
2023-04-02T06:28:46.205Z,5.85
2023-04-02T06:31:28.178Z,5.87
2023-04-02T06:33:56.442Z,5.80
2023-04-02T06:36:27.161Z,5.83
2023-04-02T06:38:59.092Z,5.93
2023-04-02T06:41:25.872Z,6.09
2023-04-02T06:44:16.909Z,6.15
2023-04-02T06:47:26.292Z,6.24
2023-04-02T06:50:13.975Z,6.40
2023-04-02T06:52:48.673Z,6.36
2023-04-02T06:55:46.587Z,6.40
2023-04-02T06:58:17.325Z,6.59
2023-04-02T07:00:46.624Z,6.58
2023-04-02T07:03:28.793Z,6.71
2023-04-02T07:05:59.954Z,6.76
2023-04-02T07:08:26.533Z,6.83
2023-04-02T07:10:52.993Z,6.93
2023-04-02T07:13:22.692Z,7.01
2023-04-02T07:15:52.341Z,7.03
2023-04-02T07:18:28.801Z,6.98
2023-04-02T07:20:56.971Z,7.14
2023-04-02T07:23:26.494Z,7.22
2023-04-02T07:25:54.552Z,7.14
2023-04-02T07:28:22.741Z,7.12
2023-04-02T07:30:50.460Z,7.14
2023-04-02T07:33:20.589Z,7.16
2023-04-02T07:35:48.070Z,7.21
2023-04-02T07:38:14.541Z,7.06
2023-04-02T07:40:41.166Z,7.12
2023-04-02T07:43:07.664Z,7.14
2023-04-02T07:45:34.785Z,7.14
2023-04-02T07:48:09.085Z,7.18
2023-04-02T07:50:35.999Z,7.32
2023-04-02T07:53:02.663Z,7.63
2023-04-02T07:55:29.144Z,7.95
2023-04-02T07:57:58.473Z,8.14
2023-04-02T08:00:26.639Z,8.32
2023-04-02T08:02:53.455Z,8.46
2023-04-02T08:05:19.996Z,8.61
2023-04-02T08:07:56.839Z,8.66
2023-04-02T08:10:24.180Z,8.66
2023-04-02T08:12:50.739Z,8.78
2023-04-02T08:15:17.402Z,8.88
2023-04-02T08:17:44.629Z,8.72
2023-04-02T08:20:18.081Z,8.72
2023-04-02T08:22:45.761Z,8.71
2023-04-02T08:25:12.841Z,8.49
2023-04-02T08:27:39.712Z,8.64
2023-04-02T08:30:08.810Z,8.61
2023-04-02T08:32:35.733Z,8.81
2023-04-02T08:35:02.627Z,8.89
2023-04-02T08:37:29.136Z,8.89
2023-04-02T08:39:55.739Z,8.90
2023-04-02T08:42:27.078Z,8.97
2023-04-02T08:45:21.271Z,8.83
2023-04-02T08:47:55.290Z,8.95
2023-04-02T08:50:44.601Z,8.98
2023-04-02T08:53:19.350Z,9.00
2023-04-02T08:56:08.350Z,9.05
2023-04-02T08:58:42.352Z,9.11
2023-04-02T09:01:27.249Z,9.21
2023-04-02T09:03:58.173Z,9.42
2023-04-02T09:06:26.092Z,9.62
2023-04-02T09:08:54.208Z,9.64
2023-04-02T09:11:24.925Z,9.62
2023-04-02T09:13:57.120Z,9.56
2023-04-02T09:16:46.877Z,9.29
2023-04-02T09:19:33.029Z,9.15
2023-04-02T09:22:06.412Z,9.36
2023-04-02T09:24:33.417Z,9.62
2023-04-02T09:27:00.045Z,9.58
2023-04-02T09:29:39.132Z,9.78
2023-04-02T09:32:21.878Z,9.92
2023-04-02T09:34:48.363Z,9.84
2023-04-02T09:37:18.836Z,9.70
2023-04-02T09:39:45.643Z,9.45
2023-04-02T09:42:36.241Z,9.69
2023-04-02T09:45:20.857Z,9.63
2023-04-02T09:47:48.201Z,9.59
2023-04-02T09:50:34.429Z,9.82
2023-04-02T09:53:31.226Z,10.32
2023-04-02T09:56:23.078Z,10.61
2023-04-02T09:59:18.263Z,10.64
2023-04-02T10:01:48.636Z,10.72
2023-04-02T10:04:44.959Z,10.80
2023-04-02T10:07:34.494Z,10.81
2023-04-02T10:10:21.183Z,10.83
2023-04-02T10:12:56.883Z,11.03
2023-04-02T10:15:33.071Z,11.28
2023-04-02T10:18:15.685Z,11.50
2023-04-02T10:20:51.055Z,11.58
2023-04-02T10:23:19.496Z,11.72
2023-04-02T10:25:55.684Z,11.82
2023-04-02T10:28:27.507Z,11.79
2023-04-02T10:31:17.299Z,11.86
2023-04-02T10:33:50.297Z,11.85
2023-04-02T10:36:50.474Z,11.63
2023-04-02T10:39:28.065Z,11.31
2023-04-02T10:42:01.842Z,11.01
2023-04-02T10:44:31.948Z,10.85
2023-04-02T10:47:08.019Z,10.80
2023-04-02T10:49:53.783Z,10.38
2023-04-02T10:52:26.646Z,10.15
2023-04-02T10:55:01.438Z,9.90
2023-04-02T10:57:35.044Z,9.80
2023-04-02T11:00:17.895Z,9.88
2023-04-02T11:03:11.303Z,9.59
2023-04-02T11:05:47.814Z,9.28
2023-04-02T11:08:28.208Z,9.28
2023-04-02T11:11:17.138Z,9.25
2023-04-02T11:13:59.321Z,9.29
2023-04-02T11:16:27.487Z,9.28
2023-04-02T11:19:15.830Z,9.03
2023-04-02T11:21:57.804Z,9.09
2023-04-02T11:24:34.480Z,8.98
2023-04-02T11:27:10.313Z,8.82
2023-04-02T11:29:52.797Z,8.70
2023-04-02T11:32:22.110Z,8.58
2023-04-02T11:34:56.420Z,8.53
2023-04-02T11:37:36.990Z,8.40
2023-04-02T11:40:44.624Z,8.40
2023-04-02T11:43:32.883Z,8.46
2023-04-02T11:46:26.647Z,8.46
2023-04-02T11:48:55.065Z,8.50
2023-04-02T11:51:22.409Z,8.50
2023-04-02T11:53:54.609Z,8.47
2023-04-02T11:56:52.139Z,8.47
2023-04-02T11:59:33.878Z,8.48
2023-04-02T12:02:50.087Z,8.44
2023-04-02T12:05:26.554Z,8.44
2023-04-02T12:08:24.287Z,8.50
2023-04-02T12:11:02.289Z,8.54
2023-04-02T12:13:41.065Z,8.55
2023-04-02T12:16:09.608Z,8.57
2023-04-02T12:18:41.629Z,8.57
2023-04-02T12:21:08.249Z,8.66
2023-04-02T12:23:37.081Z,8.74
2023-04-02T12:26:06.769Z,8.85
2023-04-02T12:28:33.914Z,8.91
2023-04-02T12:31:09.499Z,8.96
2023-04-02T12:33:38.236Z,9.01
2023-04-02T12:36:14.528Z,9.02
2023-04-02T12:38:53.853Z,9.08
2023-04-02T12:41:33.356Z,9.13
2023-04-02T12:44:06.388Z,9.19
2023-04-02T12:46:35.192Z,9.14
2023-04-02T12:49:19.774Z,9.27
2023-04-02T12:51:47.262Z,9.48
2023-04-02T12:54:18.391Z,9.57
2023-04-02T12:56:45.214Z,9.65
2023-04-02T12:59:31.960Z,9.83
2023-04-02T13:01:59.995Z,10.03
2023-04-02T13:04:26.811Z,10.21
2023-04-02T13:06:56.964Z,10.33
2023-04-02T13:09:31.352Z,10.52
2023-04-02T13:11:58.266Z,10.77
2023-04-02T13:14:25.693Z,10.80
2023-04-02T13:16:52.220Z,11.10
2023-04-02T13:19:29.398Z,11.46
2023-04-02T13:21:58.538Z,11.63
2023-04-02T13:24:27.681Z,11.59
2023-04-02T13:26:57.228Z,11.64
2023-04-02T13:29:31.001Z,11.34
2023-04-02T13:32:03.390Z,11.51
2023-04-02T13:34:30.188Z,11.79
2023-04-02T13:36:57.450Z,11.89
2023-04-02T13:39:24.768Z,11.76
2023-04-02T13:42:02.788Z,11.92
2023-04-02T13:44:36.915Z,12.13
2023-04-02T13:47:03.637Z,12.55
2023-04-02T13:49:31.764Z,12.58
2023-04-02T13:52:04.201Z,12.88
2023-04-02T13:54:44.764Z,12.49
2023-04-02T13:57:11.753Z,12.18
2023-04-02T13:59:38.304Z,11.83
2023-04-02T14:02:17.976Z,11.79
2023-04-02T14:04:50.650Z,11.63
2023-04-02T14:07:42.314Z,11.35
2023-04-02T14:10:17.687Z,11.29
2023-04-02T14:13:03.278Z,11.25
2023-04-02T14:15:59.495Z,11.32
2023-04-02T14:18:59.233Z,11.17
2023-04-02T14:21:52.023Z,11.22
2023-04-02T14:24:21.056Z,11.26
2023-04-02T14:26:53.543Z,11.42
2023-04-02T14:29:37.796Z,11.69
2023-04-02T14:32:15.443Z,11.95
2023-04-02T14:34:53.408Z,12.46
2023-04-02T14:37:47.645Z,13.04
2023-04-02T14:40:23.770Z,13.19
2023-04-02T14:42:50.184Z,13.44
2023-04-02T14:45:28.361Z,13.82
2023-04-02T14:48:02.088Z,14.05
2023-04-02T14:50:35.572Z,14.23
2023-04-02T14:53:12.313Z,14.41
2023-04-02T14:55:43.522Z,14.41
2023-04-02T14:58:18.839Z,14.44
2023-04-02T15:00:54.928Z,15.71
2023-04-02T15:03:24.332Z,16.13
2023-04-02T15:06:41.604Z,15.05
2023-04-02T15:09:28.162Z,14.31
2023-04-02T15:11:57.114Z,13.78
2023-04-02T15:14:39.720Z,13.47
2023-04-02T15:17:09.837Z,12.81
2023-04-02T15:19:36.249Z,12.48
2023-04-02T15:22:15.322Z,12.14
2023-04-02T15:25:10.388Z,12.04
2023-04-02T15:28:08.273Z,11.89
2023-04-02T15:30:38.086Z,11.56
2023-04-02T15:33:43.389Z,11.24
2023-04-02T15:36:29.466Z,10.96
2023-04-02T15:39:21.461Z,10.92
2023-04-02T15:42:30.875Z,10.90
2023-04-02T15:45:12.582Z,11.00
2023-04-02T15:48:08.495Z,11.15
2023-04-02T15:50:50.282Z,10.95
2023-04-02T15:53:34.193Z,10.88
2023-04-02T15:56:08.577Z,10.85
2023-04-02T15:59:28.751Z,10.74
2023-04-02T16:02:23.240Z,10.77
2023-04-02T16:05:03.314Z,10.79
2023-04-02T16:08:00.615Z,11.01
2023-04-02T16:10:41.899Z,10.47
2023-04-02T16:13:26.494Z,10.03
2023-04-02T16:16:02.337Z,9.59
2023-04-02T16:18:47.201Z,9.22
2023-04-02T16:21:21.952Z,8.92
2023-04-02T16:23:49.082Z,8.56
2023-04-02T16:26:36.786Z,8.46
2023-04-02T16:29:12.327Z,8.37
2023-04-02T16:32:00.797Z,8.37
2023-04-02T16:34:52.487Z,8.30
2023-04-02T16:37:27.611Z,8.28
2023-04-02T16:40:22.564Z,8.32
2023-04-02T16:43:13.940Z,8.28
2023-04-02T16:45:52.251Z,8.33
2023-04-02T16:48:46.739Z,8.33
2023-04-02T16:51:31.206Z,8.28
2023-04-02T16:54:05.450Z,8.34
2023-04-02T16:57:02.566Z,8.36
2023-04-02T16:59:48.470Z,8.30
2023-04-02T17:02:31.069Z,8.26
2023-04-02T17:05:32.475Z,8.28
2023-04-02T17:08:21.002Z,8.28
2023-04-02T17:11:06.282Z,8.22
2023-04-02T17:13:35.813Z,8.21
2023-04-02T17:16:30.619Z,8.16
2023-04-02T17:18:59.809Z,8.14
2023-04-02T17:21:28.408Z,8.06
2023-04-02T17:24:02.074Z,8.08
2023-04-02T17:26:32.485Z,8.00
2023-04-02T17:29:02.740Z,7.94
2023-04-02T17:31:34.896Z,7.93
2023-04-02T17:34:16.341Z,7.77
2023-04-02T17:36:57.260Z,7.76
2023-04-02T17:39:35.767Z,7.85
2023-04-02T17:42:13.115Z,7.80
2023-04-02T17:44:54.844Z,7.63
2023-04-02T17:47:23.237Z,7.63
2023-04-02T17:50:16.810Z,7.64
2023-04-02T17:52:53.281Z,7.62
2023-04-02T17:55:40.678Z,7.61
2023-04-02T17:58:32.895Z,7.68
2023-04-02T18:01:12.132Z,7.66
2023-04-02T18:04:08.055Z,7.62
2023-04-02T18:06:46.755Z,7.57
2023-04-02T18:09:31.693Z,7.57
2023-04-02T18:12:24.264Z,7.59
2023-04-02T18:15:24.910Z,7.63
2023-04-02T18:17:58.461Z,7.69
2023-04-02T18:20:51.622Z,7.68
2023-04-02T18:23:41.318Z,7.68
2023-04-02T18:26:19.663Z,7.61
2023-04-02T18:29:07.900Z,7.58
2023-04-02T18:31:45.218Z,7.60
2023-04-02T18:34:26.780Z,7.54
2023-04-02T18:36:56.141Z,7.49
2023-04-02T18:39:44.278Z,7.40
2023-04-02T18:42:44.796Z,7.38
2023-04-02T18:45:36.069Z,7.46
2023-04-02T18:48:31.491Z,7.29
2023-04-02T18:51:00.297Z,7.08
2023-04-02T18:53:30.195Z,7.17
2023-04-02T18:56:01.471Z,7.29
2023-04-02T18:58:40.923Z,7.33
2023-04-02T19:01:10.727Z,7.27
2023-04-02T19:03:45.077Z,7.18
2023-04-02T19:06:19.209Z,7.19
2023-04-02T19:08:51.034Z,7.17
2023-04-02T19:11:28.735Z,7.00
2023-04-02T19:13:58.515Z,6.91
2023-04-02T19:16:55.751Z,6.91
2023-04-02T19:19:27.619Z,6.99
2023-04-02T19:21:53.986Z,7.04
2023-04-02T19:24:36.280Z,6.97
2023-04-02T19:27:21.475Z,7.02
2023-04-02T19:30:16.334Z,7.02
2023-04-02T19:33:10.002Z,6.79
2023-04-02T19:36:17.059Z,6.80
2023-04-02T19:38:58.052Z,6.82
2023-04-02T19:41:39.247Z,6.50
2023-04-02T19:44:11.768Z,6.38
2023-04-02T19:46:39.336Z,6.49
2023-04-02T19:49:11.594Z,6.51
2023-04-02T19:51:38.125Z,6.51
2023-04-02T19:54:04.680Z,6.45
2023-04-02T19:56:31.136Z,6.46
2023-04-02T19:58:58.315Z,6.53
2023-04-02T20:01:26.625Z,6.51
2023-04-02T20:03:53.163Z,6.39
2023-04-02T20:06:19.657Z,6.16
2023-04-02T20:08:46.062Z,6.18
2023-04-02T20:11:12.550Z,6.31
2023-04-02T20:13:39.110Z,6.21
2023-04-02T20:16:06.793Z,5.99
2023-04-02T20:18:34.205Z,5.99
2023-04-02T20:21:04.862Z,6.02
2023-04-02T20:23:31.311Z,5.85
2023-04-02T20:25:57.856Z,5.98
2023-04-02T20:28:26.585Z,5.96
2023-04-02T20:30:53.891Z,5.77
2023-04-02T20:33:23.127Z,5.80
2023-04-02T20:35:51.277Z,5.64
2023-04-02T20:38:18.740Z,5.69
2023-04-02T20:40:52.018Z,5.70
2023-04-02T20:43:18.462Z,5.63
2023-04-02T20:45:54.564Z,5.70
2023-04-02T20:48:22.135Z,5.74
2023-04-02T20:50:49.358Z,5.67
2023-04-02T20:53:17.157Z,5.48
2023-04-02T20:55:45.734Z,5.51
2023-04-02T20:58:18.143Z,5.36
2023-04-02T21:00:45.780Z,5.48
2023-04-02T21:03:12.211Z,5.37
2023-04-02T21:05:46.335Z,5.42
2023-04-02T21:08:13.878Z,5.39
2023-04-02T21:10:40.349Z,5.22
2023-04-02T21:13:07.141Z,5.19
2023-04-02T21:15:33.676Z,5.24
2023-04-02T21:18:00.583Z,5.35
2023-04-02T21:20:27.066Z,5.14
2023-04-02T21:22:53.498Z,5.09
2023-04-02T21:25:20.125Z,5.20
2023-04-02T21:27:46.559Z,4.94
2023-04-02T21:30:13.180Z,5.09
2023-04-02T21:32:39.671Z,4.88
2023-04-02T21:35:07.500Z,4.75
2023-04-02T21:37:33.941Z,4.85
2023-04-02T21:40:00.530Z,4.80
2023-04-02T21:42:27.830Z,4.82
2023-04-02T21:44:55.844Z,4.71
2023-04-02T21:47:23.450Z,4.65
2023-04-02T21:49:49.981Z,4.50
2023-04-02T21:52:16.433Z,4.55
2023-04-02T21:54:42.828Z,4.55
2023-04-02T21:57:09.361Z,4.38
2023-04-02T21:59:35.944Z,4.41
2023-04-02T22:02:02.496Z,4.39
2023-04-02T22:04:30.551Z,4.48
2023-04-02T22:06:57.225Z,4.44
2023-04-02T22:09:25.603Z,4.43
2023-04-02T22:11:55.172Z,4.25
2023-04-02T22:14:23.333Z,4.30
2023-04-02T22:16:49.851Z,4.34
2023-04-02T22:19:17.034Z,4.31
2023-04-02T22:21:43.949Z,4.16
2023-04-02T22:24:13.834Z,4.18
2023-04-02T22:26:41.184Z,4.30
2023-04-02T22:29:08.006Z,4.07
2023-04-02T22:31:35.198Z,3.98
2023-04-02T22:34:02.769Z,3.99
2023-04-02T22:36:30.175Z,3.67
2023-04-02T22:38:58.058Z,3.73
2023-04-02T22:41:27.920Z,3.75
2023-04-02T22:43:58.537Z,3.86
2023-04-02T22:46:26.725Z,3.70
2023-04-02T22:48:53.375Z,3.74
2023-04-02T22:51:21.682Z,3.48
2023-04-02T22:53:49.235Z,3.40
2023-04-02T22:56:22.035Z,3.53
2023-04-02T22:58:49.047Z,3.53
2023-04-02T23:01:28.534Z,3.51
2023-04-02T23:03:55.929Z,3.49
2023-04-02T23:06:23.436Z,3.53
2023-04-02T23:08:49.891Z,3.04
2023-04-02T23:11:24.684Z,3.11
2023-04-02T23:13:52.530Z,3.08
2023-04-02T23:16:20.247Z,3.18
2023-04-02T23:18:48.252Z,3.18
2023-04-02T23:21:16.573Z,2.95
2023-04-02T23:23:43.435Z,2.99
2023-04-02T23:26:13.332Z,3.08
2023-04-02T23:28:40.849Z,3.08
2023-04-02T23:31:11.672Z,3.03
2023-04-02T23:33:38.173Z,3.05
2023-04-02T23:36:09.732Z,2.93
2023-04-02T23:38:36.245Z,2.87
2023-04-02T23:41:02.911Z,2.65
2023-04-02T23:43:29.315Z,2.46
2023-04-02T23:45:55.799Z,2.52
2023-04-02T23:48:22.293Z,2.68
2023-04-02T23:50:48.715Z,2.77
2023-04-02T23:53:16.413Z,2.76
2023-04-02T23:55:43.062Z,2.63
2023-04-02T23:58:09.536Z,2.64
